• Join FlightAware (Why Join?)
  • Login
  • US Flag 
02:08AM EDT


 

Airport Tracker/Info


-or-


 

Live Flight TrackerFlight Track Log ✈ ASQ5958 ✈ 09-May-2013 ✈ KSYR - KORD

Flight Track Log - Related Links

Times and Time Zones

All times are in EDT time to prevent confusion due to time zone crossing. See the ASQ5958 flight status page for this flight to view local times or setup timezone preferences in your user account.

Time Position Orientation Groundspeed Altitude Reporting Facility
EDT Latitude Longitude Course Direction KTS MPH feet Rate Location/Type
12:15PM 43.0883 -76.0825 270° West 163 188 1,600  Level Boston Center
12:16PM 43.0883 -76.1450 270° West 216 249 3,900 1,920 Climbing Boston Center
12:18PM 43.1728 -76.2956 308° West 278 320 8,000 1,980 Climbing Cleveland Center
12:19PM 43.1931 -76.3967 285° West 272 313 10,000 1,680 Climbing Cleveland Center
12:20PM 43.2014 -76.5072 276° West 282 325 11,400 1,380 Climbing Cleveland Center
12:21PM 43.1992 -76.6242 269° West 296 341 12,800 1,500 Climbing Cleveland Center
12:22PM 43.1933 -76.7642 267° West 318 366 14,400 1,440 Climbing Cleveland Center
12:23PM 43.1914 -76.8925 269° West 335 386 15,700 1,200 Climbing Cleveland Center
12:24PM 43.1914 -77.0264 270° West 347 399 16,900 1,080 Climbing Cleveland Center
12:25PM 43.1872 -77.1633 268° West 358 412 17,900 900 Climbing Cleveland Center
12:26PM 43.1850 -77.3058 269° West 368 423 18,800 900 Climbing Cleveland Center
12:27PM 43.1828 -77.4483 269° West 378 435 19,800 1,140 Climbing Cleveland Center
12:28PM 43.1783 -77.5994 268° West 389 448 21,100 1,200 Climbing Cleveland Center
12:29PM 43.1758 -77.7450 269° West 389 448 22,300 1,200 Climbing Cleveland Center
12:30PM 43.1708 -77.8931 267° West 389 448 23,600 1,260 Climbing Cleveland Center
12:31PM 43.1678 -78.0356 268° West 389 448 24,900 1,200 Climbing Cleveland Center
12:32PM 43.1647 -78.1781 268° West 389 448 26,100 1,200 Climbing Cleveland Center
12:33PM 43.1592 -78.3206 267° West 384 442 27,400 1,200 Climbing Cleveland Center
12:34PM 43.1575 -78.4489 269° West 384 442 28,600 1,080 Climbing Cleveland Center
12:35PM 43.1517 -78.5856 267° West 379 436 29,600 900 Climbing Cleveland Center
12:36PM 43.1475 -78.7222 268° West 379 436 30,500 900 Climbing Cleveland Center
12:37PM 43.1414 -78.8647 267° West 374 430 31,400 900 Climbing Cleveland Center
12:38PM 43.1333 -78.9667 264° West 380 437 32,100 900 Climbing Toronto Center
12:39PM 43.1167 -79.1000 260° West 380 437 33,000 840 Climbing Toronto Center
12:40PM 43.1167 -79.2500 270° West 380 437 33,800 660 Climbing Toronto Center
12:41PM 43.1167 -79.4000 270° West 390 449 34,400 720 Climbing Toronto Center
12:42PM 43.1000 -79.5500 261° West 390 449 35,300 660 Climbing Toronto Center
12:43PM 43.1000 -79.6833 270° West 390 449 35,800 300 Climbing Toronto Center
12:44PM 43.1000 -79.8333 270° West 390 449 36,000 60 Climbing Toronto Center
12:45PM 43.0833 -80.0000 262° West 410 472 36,000  Level Toronto Center
12:46PM 43.0833 -80.1500 270° West 410 472 36,000  Level Toronto Center
12:47PM 43.0667 -80.3167 262° West 420 483 36,000  Level Toronto Center
12:48PM 43.0667 -80.4500 270° West 420 483 36,000  Level Toronto Center
12:49PM 43.0500 -80.6333 263° West 410 472 36,000  Level Toronto Center
12:50PM 43.0500 -80.7667 270° West 410 472 36,000  Level Toronto Center
12:51PM 43.0333 -80.9333 262° West 410 472 36,000 -120 Level Toronto Center
12:52PM 43.0167 -81.1000 262° West 410 472 35,800 -900 Descending Toronto Center
12:53PM 43.0167 -81.2333 270° West 410 472 34,300 -1,500 Descending Toronto Center
12:54PM 43.0167 -81.4167 270° West 420 483 32,800 -1,200 Descending Toronto Center
12:55PM 43.0167 -81.5500 270° West 420 483 32,000 -420 Descending Toronto Center
12:56PM 43.0167 -81.7000 270° West 420 483 32,000  Level Toronto Center
12:57PM 43.0167 -81.8667 270° West 420 483 32,000  Level Toronto Center
12:58PM 43.0000 -82.0333 262° West 420 483 32,000  Level Toronto Center
12:59PM 43.0000 -82.2167 270° West 420 483 32,000  Level Toronto Center
01:00PM 43.0000 -82.3500 270° West 420 483 32,000  Level Toronto Center
01:01PM 43.0000 -82.5333 270° West 420 483 32,000  Level Toronto Center
01:02PM 42.9833 -82.6667 260° West 420 483 32,000  Level Toronto Center
01:03PM 42.9981 -82.7606 282° West 419 482 32,000  Level Cleveland Center
01:04PM 42.9950 -82.9164 269° West 419 482 32,000  Level Cleveland Center
01:05PM 42.9875 -83.0753 266° West 419 482 32,000  Level Cleveland Center
01:06PM 42.9842 -83.2339 268° West 419 482 32,000  Level Cleveland Center
01:07PM 42.9783 -83.3897 267° West 419 482 32,000  Level Cleveland Center
01:08PM 42.9725 -83.5456 267° West 419 482 32,000  Level Cleveland Center
01:09PM 42.9681 -83.7072 268° West 419 482 32,000  Level Cleveland Center
01:10PM 42.9556 -83.8628 264° West 419 482 32,000  Level Cleveland Center
01:11PM 42.9386 -84.0150 261° West 419 482 32,000  Level Cleveland Center
01:12PM 42.9233 -84.1700 262° West 419 482 32,000  Level Cleveland Center
01:13PM 42.9081 -84.3222 262° West 419 482 32,000 -600 Level Cleveland Center
01:14PM 42.8947 -84.4775 263° West 412 474 30,900 -1,020 Descending Chicago Center
01:15PM 42.8786 -84.6331 262° West 414 476 30,000 -480 Descending Chicago Center
01:16PM 42.8633 -84.7872 262° West 412 474 30,000  Level Chicago Center
01:17PM 42.8461 -84.9431 261° West 416 479 30,000  Level Chicago Center
01:18PM 42.8303 -85.1006 262° West 419 482 30,000  Level Chicago Center
01:19PM 42.8122 -85.2572 261° West 420 483 30,000  Level Chicago Center
01:20PM 42.7917 -85.4439 262° West 416 479 30,000 -60 Level Chicago Center
01:21PM 42.7678 -85.5967 258° West 412 474 29,900 -1,260 Descending Chicago Center
01:22PM 42.7417 -85.7453 257° West 405 466 27,500 -2,340 Descending Chicago Center
01:23PM 42.7150 -85.8894 256° West 393 452 25,100 -2,280 Descending Chicago Center
01:24PM 42.6883 -86.0394 256° West 402 463 22,900 -2,220 Descending Chicago Center
01:25PM 42.6606 -86.1892 256° West 408 470 20,600 -1,800 Descending Chicago Center
01:26PM 42.6356 -86.3267 256° West 379 436 19,200 -1,920 Descending Chicago Center
01:27PM 42.6047 -86.4892 256° West 371 427 16,700 -2,220 Descending Chicago Center
01:28PM 42.5792 -86.6244 256° West 371 427 14,600 -2,040 Descending Chicago Center
01:29PM 42.5533 -86.7569 255° West 366 421 12,500 -1,920 Descending Chicago Center
01:30PM 42.5178 -86.8800 249° West 354 407 10,700 -1,200 Descending Chicago Center
01:31PM 42.4869 -86.9989 251° West 340 391 10,100 -360 Descending Chicago Center
01:32PM 42.4528 -87.1122 248° West 328 377 10,000 -540 Descending Chicago Center
01:33PM 42.4225 -87.2303 251° West 280 322 9,000 -540 Descending Chicago Center
01:34PM 42.3689 -87.2864 218° Southwest 294 338 9,000  Level Chicago Center
01:35PM 42.2914 -87.2792 176° South 271 312 9,000  Level Chicago Center
01:36PM 42.2156 -87.2711 176° South 274 315 9,000 -420 Level Chicago Center
01:37PM 42.1531 -87.2653 176° South 232 267 8,200 -540 Descending Chicago Center
01:39PM 42.0914 -87.2600 176° South 221 254 7,900 -600 Descending Chicago Center
01:40PM 42.0389 -87.2858 200° South 222 255 7,000 -480 Descending Chicago Center
01:41PM 42.0003 -87.3778 241° Southwest 237 273 7,000  Level Chicago Center
01:42PM 41.9789 -87.4575 250° West 238 274 7,000 -720 Level Chicago Center
01:43PM 41.9833 -87.5333 275° West 235 270 5,700 -1,380 Descending Chicago TRACON
01:44PM 41.9833 -87.6333 270° West 230 265 4,400 -1,200 Descending Chicago TRACON
01:45PM 41.9833 -87.7000 270° West 214 246 3,300 -1,140 Descending Chicago TRACON
01:46PM 41.9833 -87.7833 270° West 187 215 2,200 -900 Descending Chicago TRACON
01:47PM 41.9833 -87.8333 270° West 143 165 1,500 -720 Descending Chicago TRACON
01:49PM 41.9667 -87.9000 270° West  Level FlightAware Approximate